Terminal Aerodrome Forecast
Issued by NWS

Home | Current Version | Previous Version | Text Only | Print | Product List | Glossary On
Versions: 1 2 3 4 5 6 7 8 9 10 11 12 13 14 15 16 17 18 19 20 21 22 23
029
FTUS45 KBYZ 222337
TAFLVM
TAF
KLVM 222337Z 2300/2324 06010KT P6SM VCSH OVC110
     FM230200 09015KT 6SM -SHRA BKN040 OVC070
     FM230500 09015KT 4SM RA BR SCT020 OVC040
     FM230900 09018KT 2SM -RASN BR SCT008 OVC012
     FM231100 09018KT 1SM -SN BR OVC010
     FM232000 25012KT P6SM -SHRA BKN030=

USA.gov is the U.S. government's official web portal to all federal, state and local government web resources and services.